createdAt,value
2023-04-25T00:02:23.816Z,98.80
2023-04-25T00:05:09.342Z,98.90
2023-04-25T00:07:54.703Z,98.74
2023-04-25T00:10:39.977Z,98.98
2023-04-25T00:13:26.480Z,99.07
2023-04-25T00:16:12.600Z,98.97
2023-04-25T00:18:59.719Z,98.97
2023-04-25T00:21:47.250Z,99.57
2023-04-25T00:24:32.589Z,99.78
2023-04-25T00:27:18.003Z,100.00
2023-04-25T00:30:03.705Z,99.92
2023-04-25T00:32:49.913Z,99.60
2023-04-25T00:35:36.376Z,99.35
2023-04-25T00:38:21.293Z,99.18
2023-04-25T00:41:09.748Z,98.89
2023-04-25T00:43:56.828Z,98.97
2023-04-25T00:46:42.463Z,99.07
2023-04-25T00:49:27.829Z,98.99
2023-04-25T00:52:13.607Z,99.40
2023-04-25T00:54:58.938Z,99.14
2023-04-25T00:57:44.284Z,99.41
2023-04-25T01:00:29.978Z,99.46
2023-04-25T01:03:17.516Z,99.34
2023-04-25T01:06:03.831Z,99.17
2023-04-25T01:08:48.967Z,99.41
2023-04-25T01:11:34.460Z,99.28
2023-04-25T01:14:19.784Z,99.35
2023-04-25T01:17:05.164Z,99.71
2023-04-25T01:19:51.726Z,100.00
2023-04-25T01:22:37.080Z,100.00
2023-04-25T01:25:23.678Z,100.00
2023-04-25T01:28:08.947Z,100.00
2023-04-25T01:30:54.436Z,100.00
2023-04-25T01:33:39.812Z,100.00
2023-04-25T01:36:25.051Z,99.84
2023-04-25T01:39:11.011Z,99.93
2023-04-25T01:41:57.571Z,99.94
2023-04-25T01:44:43.349Z,99.88
2023-04-25T01:47:30.097Z,99.96
2023-04-25T01:50:19.800Z,100.00
2023-04-25T01:53:05.839Z,99.95
2023-04-25T01:55:50.851Z,99.79
2023-04-25T01:58:36.109Z,100.00
2023-04-25T02:01:21.523Z,100.00
2023-04-25T02:04:07.011Z,100.00
2023-04-25T02:06:51.977Z,100.00
2023-04-25T02:09:37.350Z,100.00
2023-04-25T02:12:22.796Z,100.00
2023-04-25T02:15:08.399Z,100.00
2023-04-25T02:17:56.416Z,100.00
2023-04-25T02:20:41.847Z,100.00
2023-04-25T02:23:27.273Z,100.00
2023-04-25T02:26:14.391Z,100.00
2023-04-25T02:28:59.447Z,100.00
2023-04-25T02:31:44.887Z,100.00
2023-04-25T02:34:30.138Z,100.00
2023-04-25T02:37:15.760Z,100.00
2023-04-25T02:40:01.062Z,100.00
2023-04-25T02:42:49.395Z,100.00
2023-04-25T02:45:34.598Z,100.00
2023-04-25T02:48:19.841Z,100.00
2023-04-25T02:51:05.296Z,100.00
2023-04-25T02:53:50.714Z,100.00
2023-04-25T02:56:36.285Z,100.00
2023-04-25T02:59:21.479Z,100.00
2023-04-25T03:02:06.714Z,100.00
2023-04-25T03:04:52.124Z,100.00
2023-04-25T03:07:37.466Z,100.00
2023-04-25T03:10:22.868Z,100.00
2023-04-25T03:13:08.317Z,99.56
2023-04-25T03:15:53.594Z,99.17
2023-04-25T03:18:38.845Z,99.07
2023-04-25T03:21:24.654Z,99.31
2023-04-25T03:24:10.084Z,99.11
2023-04-25T03:26:55.270Z,98.80
2023-04-25T03:29:41.860Z,98.97
2023-04-25T03:32:27.042Z,98.56
2023-04-25T03:35:12.195Z,98.87
2023-04-25T03:37:57.455Z,99.51
2023-04-25T03:40:42.855Z,99.10
2023-04-25T03:43:28.163Z,98.54
2023-04-25T03:46:13.539Z,99.26
2023-04-25T03:49:00.201Z,99.12
2023-04-25T03:51:45.274Z,99.14
2023-04-25T03:54:30.840Z,99.43
2023-04-25T03:57:16.021Z,98.99
2023-04-25T04:00:01.449Z,98.38
2023-04-25T04:02:46.672Z,98.59
2023-04-25T04:05:32.120Z,97.97
2023-04-25T04:08:17.050Z,98.12
2023-04-25T04:11:02.604Z,98.17
2023-04-25T04:13:47.923Z,98.10
2023-04-25T04:16:36.275Z,98.41
2023-04-25T04:19:21.678Z,98.19
2023-04-25T04:22:06.995Z,98.30
2023-04-25T04:24:52.262Z,98.00
2023-04-25T04:27:37.640Z,97.72
2023-04-25T04:30:30.399Z,97.69
2023-04-25T04:33:16.168Z,97.75
2023-04-25T04:36:02.006Z,98.09
2023-04-25T04:38:46.969Z,97.95
2023-04-25T04:41:32.240Z,97.33
2023-04-25T04:44:17.599Z,97.55
2023-04-25T04:47:04.781Z,97.64
2023-04-25T04:49:50.335Z,97.40
2023-04-25T04:52:36.813Z,97.40
2023-04-25T04:55:22.201Z,97.35
2023-04-25T04:58:08.281Z,97.32
2023-04-25T05:00:53.443Z,96.95
2023-04-25T05:03:38.936Z,96.44
2023-04-25T05:06:24.371Z,96.81
2023-04-25T05:09:09.582Z,96.51
2023-04-25T05:11:54.994Z,96.64
2023-04-25T05:14:40.234Z,96.83
2023-04-25T05:17:25.706Z,96.81
2023-04-25T05:20:11.369Z,97.74
2023-04-25T05:22:56.456Z,96.05
2023-04-25T05:25:41.886Z,96.13
2023-04-25T05:28:27.170Z,95.77
2023-04-25T05:31:12.702Z,97.08
2023-04-25T05:33:57.589Z,96.24
2023-04-25T05:36:43.070Z,95.90
2023-04-25T05:39:28.350Z,94.80
2023-04-25T05:42:13.658Z,95.14
2023-04-25T05:44:59.074Z,95.44
2023-04-25T05:47:44.359Z,95.09
2023-04-25T05:50:30.284Z,93.70
2023-04-25T05:53:15.556Z,95.02
2023-04-25T05:56:01.257Z,95.33
2023-04-25T05:58:46.526Z,94.89
2023-04-25T06:01:32.347Z,94.82
2023-04-25T06:04:18.200Z,94.83
2023-04-25T06:07:03.610Z,94.86
2023-04-25T06:09:48.964Z,94.98
2023-04-25T06:12:34.518Z,95.84
2023-04-25T06:18:08.216Z,96.82
2023-04-25T06:20:53.345Z,97.16
2023-04-25T06:23:38.332Z,97.08
2023-04-25T06:26:23.804Z,96.52
2023-04-25T06:29:08.963Z,96.94
2023-04-25T06:31:54.539Z,96.40
2023-04-25T06:34:39.842Z,96.74
2023-04-25T06:37:25.259Z,95.98
2023-04-25T06:40:10.649Z,95.47
2023-04-25T06:42:55.799Z,95.62
2023-04-25T06:45:41.184Z,94.43
2023-04-25T06:48:26.418Z,95.06
2023-04-25T06:51:11.616Z,94.52
2023-04-25T06:53:57.200Z,91.90
2023-04-25T06:56:42.463Z,92.78
2023-04-25T06:59:28.029Z,91.67
2023-04-25T07:02:13.152Z,92.79
2023-04-25T07:05:00.853Z,92.92
2023-04-25T07:07:46.524Z,92.01
2023-04-25T07:10:31.799Z,89.73
2023-04-25T07:13:17.249Z,90.67
2023-04-25T07:16:02.598Z,90.11
2023-04-25T07:18:48.121Z,91.12
2023-04-25T07:21:33.898Z,91.70
2023-04-25T07:24:19.416Z,91.83
2023-04-25T07:27:04.773Z,91.65
2023-04-25T07:29:49.987Z,91.67
2023-04-25T07:32:36.053Z,91.89
2023-04-25T07:35:21.354Z,92.58
2023-04-25T07:38:07.727Z,93.02
2023-04-25T07:40:53.400Z,93.47
2023-04-25T07:43:38.632Z,93.09
2023-04-25T07:46:24.203Z,92.35
2023-04-25T07:49:09.691Z,92.57
2023-04-25T07:51:55.040Z,93.61
2023-04-25T07:54:40.548Z,93.49
2023-04-25T07:57:25.863Z,94.16
2023-04-25T08:00:12.197Z,93.93
2023-04-25T08:02:57.292Z,92.92
2023-04-25T08:05:42.755Z,91.65
2023-04-25T08:08:28.171Z,92.31
2023-04-25T08:11:13.368Z,92.08
2023-04-25T08:13:58.921Z,91.72
2023-04-25T08:16:44.594Z,89.77
2023-04-25T08:19:29.874Z,89.22
2023-04-25T08:22:15.816Z,89.39
2023-04-25T08:25:01.099Z,89.75
2023-04-25T08:27:46.709Z,90.59
2023-04-25T08:30:32.114Z,89.07
2023-04-25T08:33:17.551Z,89.51
2023-04-25T08:36:03.522Z,89.95
2023-04-25T08:38:48.670Z,90.52
2023-04-25T08:41:34.170Z,90.17
2023-04-25T08:44:20.792Z,90.64
2023-04-25T08:47:06.882Z,90.71
2023-04-25T08:49:55.107Z,90.71
2023-04-25T08:52:47.145Z,91.15
2023-04-25T08:55:32.977Z,90.87
2023-04-25T08:58:19.424Z,90.72
2023-04-25T09:01:04.892Z,91.49
2023-04-25T09:03:50.498Z,91.86
2023-04-25T09:06:36.109Z,92.44
2023-04-25T09:09:21.684Z,92.26
2023-04-25T09:12:06.823Z,92.71
2023-04-25T09:15:11.904Z,93.31
2023-04-25T09:17:58.780Z,93.70
2023-04-25T09:21:00.743Z,94.34
2023-04-25T09:23:49.726Z,93.99
2023-04-25T09:26:35.514Z,93.84
2023-04-25T09:29:30.371Z,94.79
2023-04-25T09:32:15.701Z,94.87
2023-04-25T09:35:00.878Z,94.76
2023-04-25T09:37:47.031Z,94.15
2023-04-25T09:40:33.075Z,94.37
2023-04-25T09:43:25.516Z,93.06
2023-04-25T09:46:12.538Z,92.50
2023-04-25T09:48:58.158Z,92.81
2023-04-25T09:51:54.453Z,92.66
2023-04-25T09:54:39.954Z,93.14
2023-04-25T09:57:25.534Z,92.94
2023-04-25T10:00:13.960Z,92.55
2023-04-25T10:03:04.790Z,92.58
2023-04-25T10:05:50.381Z,91.97
2023-04-25T10:08:37.886Z,92.52
2023-04-25T10:11:25.894Z,93.23
2023-04-25T10:14:13.403Z,93.64
2023-04-25T10:16:59.728Z,94.59
2023-04-25T10:19:45.750Z,93.63
2023-04-25T10:22:35.298Z,92.77
2023-04-25T10:25:20.315Z,92.59
2023-04-25T10:28:06.258Z,93.05
2023-04-25T10:30:58.013Z,92.23
2023-04-25T10:33:44.177Z,91.41
2023-04-25T10:36:33.098Z,90.67
2023-04-25T10:39:24.269Z,90.37
2023-04-25T10:42:09.505Z,90.97
2023-04-25T10:45:06.583Z,91.69
2023-04-25T10:47:52.320Z,92.32
2023-04-25T10:50:40.809Z,90.53
2023-04-25T10:53:26.255Z,90.39
2023-04-25T10:56:22.468Z,90.80
2023-04-25T10:59:12.955Z,91.00
2023-04-25T11:01:58.589Z,92.39
2023-04-25T11:04:45.545Z,91.18
2023-04-25T11:08:03.814Z,91.50
2023-04-25T11:10:50.297Z,92.47
2023-04-25T11:13:37.270Z,93.13
2023-04-25T11:16:28.399Z,93.84
2023-04-25T11:19:13.794Z,92.87
2023-04-25T11:22:01.232Z,92.32
2023-04-25T11:24:46.806Z,92.31
2023-04-25T11:27:31.997Z,93.81
2023-04-25T11:30:17.977Z,94.31
2023-04-25T11:33:04.392Z,93.95
2023-04-25T11:35:50.072Z,92.66
2023-04-25T11:38:35.543Z,92.94
2023-04-25T11:41:23.626Z,92.19
2023-04-25T11:44:08.974Z,91.78
2023-04-25T11:46:54.268Z,92.50
2023-04-25T11:49:39.636Z,91.84
2023-04-25T11:52:25.034Z,92.14
2023-04-25T11:55:18.736Z,91.37
2023-04-25T11:58:05.057Z,91.22
2023-04-25T12:00:51.039Z,91.38
2023-04-25T12:03:46.947Z,91.52
2023-04-25T12:06:32.844Z,91.33
2023-04-25T12:09:29.437Z,92.43
2023-04-25T12:12:14.422Z,92.78
2023-04-25T12:15:12.454Z,93.03
2023-04-25T12:17:57.610Z,92.70
2023-04-25T12:20:43.760Z,92.10
2023-04-25T12:23:29.751Z,91.93
2023-04-25T12:26:15.361Z,91.74
2023-04-25T12:29:01.355Z,92.60
2023-04-25T12:31:46.936Z,92.63
2023-04-25T12:34:33.420Z,92.82
2023-04-25T12:37:18.535Z,92.43
2023-04-25T12:40:05.322Z,92.42
2023-04-25T12:42:50.790Z,92.84
2023-04-25T12:45:36.304Z,93.50
2023-04-25T12:48:22.343Z,94.04
2023-04-25T12:51:07.479Z,92.31
2023-04-25T12:53:53.169Z,90.22
2023-04-25T12:56:38.255Z,91.07
2023-04-25T12:59:24.118Z,90.93
2023-04-25T13:02:09.065Z,90.97
2023-04-25T13:04:54.272Z,90.13
2023-04-25T13:07:39.683Z,90.17
2023-04-25T13:10:24.624Z,91.06
2023-04-25T13:13:09.767Z,92.28
2023-04-25T13:15:54.962Z,92.50
2023-04-25T13:18:39.911Z,92.64
2023-04-25T13:21:25.269Z,93.18
2023-04-25T13:24:10.299Z,92.26
2023-04-25T13:26:55.794Z,91.56
2023-04-25T13:29:41.596Z,91.43
2023-04-25T13:32:26.881Z,89.25
2023-04-25T13:35:14.792Z,90.78
2023-04-25T13:38:00.316Z,90.73
2023-04-25T13:40:46.600Z,91.57
2023-04-25T13:43:33.151Z,90.45
2023-04-25T13:49:12.739Z,90.02
2023-04-25T13:51:58.631Z,91.21
2023-04-25T13:54:43.755Z,91.09
2023-04-25T13:57:29.025Z,92.09
2023-04-25T14:00:14.814Z,92.15
2023-04-25T14:03:00.159Z,91.99
2023-04-25T14:05:45.675Z,92.06
2023-04-25T14:08:31.048Z,91.90
2023-04-25T14:11:16.232Z,91.79
2023-04-25T14:14:01.729Z,92.64
2023-04-25T14:16:49.246Z,92.25
2023-04-25T14:19:34.414Z,91.82
2023-04-25T14:22:20.151Z,91.48
2023-04-25T14:25:06.372Z,91.72
2023-04-25T14:27:51.841Z,91.74
2023-04-25T14:30:37.174Z,92.16
2023-04-25T14:33:22.132Z,92.34
2023-04-25T14:36:07.612Z,92.83
2023-04-25T14:38:54.012Z,93.83
2023-04-25T14:41:39.273Z,94.55
2023-04-25T14:44:24.356Z,94.08
2023-04-25T14:47:09.852Z,94.65
2023-04-25T14:49:55.495Z,95.21
2023-04-25T14:52:40.861Z,95.64
2023-04-25T14:55:26.524Z,95.24
2023-04-25T14:58:11.923Z,94.66
2023-04-25T15:00:57.291Z,94.54
2023-04-25T15:03:42.901Z,95.32
2023-04-25T15:06:29.877Z,95.02
2023-04-25T15:09:14.981Z,94.67
2023-04-25T15:12:00.456Z,94.55
2023-04-25T15:14:46.395Z,94.34
2023-04-25T15:17:32.157Z,95.12
2023-04-25T15:20:18.245Z,95.83
2023-04-25T15:23:04.507Z,94.82
2023-04-25T15:25:53.000Z,94.86
2023-04-25T15:28:38.112Z,96.44
2023-04-25T15:31:23.569Z,96.08
2023-04-25T15:34:08.927Z,95.33
2023-04-25T15:36:54.186Z,95.41
2023-04-25T15:39:39.539Z,94.81
2023-04-25T15:42:24.704Z,94.98
2023-04-25T15:45:12.094Z,95.39
2023-04-25T15:47:57.350Z,95.92
2023-04-25T15:50:42.774Z,94.29
2023-04-25T15:53:27.728Z,94.44
2023-04-25T15:56:12.989Z,94.86
2023-04-25T15:58:58.210Z,94.02
2023-04-25T16:01:43.453Z,93.02
2023-04-25T16:04:35.393Z,92.64
2023-04-25T16:07:20.574Z,92.60
2023-04-25T16:10:06.548Z,92.56
2023-04-25T16:12:52.208Z,92.97
2023-04-25T16:15:37.236Z,91.63
2023-04-25T16:18:22.772Z,92.62
2023-04-25T16:21:08.169Z,92.22
2023-04-25T16:23:53.439Z,92.16
2023-04-25T16:26:38.445Z,91.96
2023-04-25T16:29:23.359Z,91.64
2023-04-25T16:32:09.119Z,90.74
2023-04-25T16:34:54.243Z,91.17
2023-04-25T16:37:39.491Z,90.90
2023-04-25T16:40:24.614Z,90.83
2023-04-25T16:43:09.861Z,91.76
2023-04-25T16:45:54.929Z,92.02
2023-04-25T16:48:40.095Z,91.96
2023-04-25T16:51:25.191Z,92.11
2023-04-25T16:54:10.352Z,91.81
2023-04-25T16:56:55.465Z,91.42
2023-04-25T16:59:41.474Z,91.47
2023-04-25T17:02:27.309Z,91.81
2023-04-25T17:05:13.627Z,92.16
2023-04-25T17:07:59.020Z,92.39
2023-04-25T17:10:44.244Z,92.44
2023-04-25T17:13:30.930Z,93.23
2023-04-25T17:16:22.924Z,92.88
2023-04-25T17:19:08.765Z,93.37
2023-04-25T17:21:54.173Z,94.86
2023-04-25T17:24:40.771Z,94.14
2023-04-25T17:27:26.558Z,93.43
2023-04-25T17:30:12.650Z,93.49
2023-04-25T17:32:59.578Z,92.57
2023-04-25T17:35:45.113Z,91.91
2023-04-25T17:38:30.502Z,90.37
2023-04-25T17:41:15.939Z,90.77
2023-04-25T17:44:01.384Z,90.60
2023-04-25T17:46:47.074Z,90.54
2023-04-25T17:49:33.708Z,90.27
2023-04-25T17:52:19.072Z,89.90
2023-04-25T17:55:08.474Z,89.02
2023-04-25T17:57:53.358Z,88.67
2023-04-25T18:00:39.174Z,88.32
2023-04-25T18:03:24.604Z,88.30
2023-04-25T18:06:10.292Z,88.42
2023-04-25T18:08:57.188Z,87.95
2023-04-25T18:11:46.462Z,87.46
2023-04-25T18:14:33.808Z,88.02
2023-04-25T18:17:19.150Z,88.38
2023-04-25T18:20:06.469Z,88.20
2023-04-25T18:22:51.451Z,88.10
2023-04-25T18:25:36.663Z,88.42
2023-04-25T18:28:22.351Z,88.29
2023-04-25T18:31:09.475Z,88.49
2023-04-25T18:33:54.936Z,87.83
2023-04-25T18:36:40.661Z,87.99
2023-04-25T18:39:27.262Z,87.74
2023-04-25T18:42:12.953Z,87.85
2023-04-25T18:44:58.211Z,87.80
2023-04-25T18:47:43.333Z,87.72
2023-04-25T18:50:28.595Z,87.78
2023-04-25T18:53:13.776Z,88.57
2023-04-25T18:55:59.008Z,88.11
2023-04-25T18:58:44.060Z,88.00
2023-04-25T19:01:29.502Z,88.16
2023-04-25T19:04:15.144Z,88.48
2023-04-25T19:07:00.546Z,89.02
2023-04-25T19:09:45.781Z,88.72
2023-04-25T19:12:50.236Z,88.95
2023-04-25T19:15:35.426Z,89.09
2023-04-25T19:18:20.412Z,89.64
2023-04-25T19:21:06.911Z,90.19
2023-04-25T19:23:54.401Z,89.63
2023-04-25T19:26:40.071Z,89.65
2023-04-25T19:29:25.436Z,89.75
2023-04-25T19:32:11.448Z,89.75
2023-04-25T19:34:56.649Z,89.33
2023-04-25T19:37:47.014Z,89.78
2023-04-25T19:40:32.759Z,90.44
2023-04-25T19:43:18.496Z,90.38
2023-04-25T19:46:04.371Z,90.67
2023-04-25T19:48:49.962Z,90.06
2023-04-25T19:51:36.654Z,90.04
2023-04-25T19:54:23.337Z,90.43
2023-04-25T19:57:09.558Z,90.56
2023-04-25T19:59:54.815Z,90.12
2023-04-25T20:02:41.127Z,89.57
2023-04-25T20:05:27.118Z,90.10
2023-04-25T20:08:12.137Z,90.22
2023-04-25T20:10:57.406Z,89.34
2023-04-25T20:13:42.754Z,90.09
2023-04-25T20:16:28.045Z,89.64
2023-04-25T20:19:13.472Z,89.28
2023-04-25T20:21:58.780Z,89.63
2023-04-25T20:24:43.971Z,89.42
2023-04-25T20:27:29.760Z,90.39
2023-04-25T20:30:15.547Z,90.66
2023-04-25T20:33:02.173Z,90.12
2023-04-25T20:35:48.527Z,90.16
2023-04-25T20:38:33.799Z,90.88
2023-04-25T20:41:20.183Z,91.56
2023-04-25T20:44:05.297Z,91.84
2023-04-25T20:46:51.573Z,92.46
2023-04-25T20:49:36.963Z,92.63
2023-04-25T20:52:22.858Z,93.07
2023-04-25T20:55:08.566Z,92.96
2023-04-25T20:57:53.417Z,94.09
2023-04-25T21:00:39.093Z,93.90
2023-04-25T21:03:26.208Z,93.97
2023-04-25T21:06:11.414Z,94.00
2023-04-25T21:08:56.576Z,94.02
2023-04-25T21:11:41.928Z,94.48
2023-04-25T21:14:27.373Z,95.09
2023-04-25T21:17:12.720Z,94.80
2023-04-25T21:19:57.832Z,94.72
2023-04-25T21:22:50.257Z,95.85
2023-04-25T21:25:37.185Z,96.02
2023-04-25T21:28:23.396Z,96.85
2023-04-25T21:31:08.914Z,96.77
2023-04-25T21:33:54.476Z,97.59
2023-04-25T21:36:41.280Z,97.79
2023-04-25T21:39:26.619Z,96.95
2023-04-25T21:42:11.978Z,97.90
2023-04-25T21:44:57.636Z,97.74
2023-04-25T21:47:42.980Z,97.97
2023-04-25T21:50:28.274Z,97.70
2023-04-25T21:53:13.644Z,98.07
2023-04-25T21:55:58.827Z,97.52
2023-04-25T21:58:44.079Z,98.00
2023-04-25T22:01:29.468Z,98.57
2023-04-25T22:04:14.982Z,99.17
2023-04-25T22:07:01.139Z,98.64
2023-04-25T22:09:54.219Z,98.32
2023-04-25T22:12:40.439Z,97.62
2023-04-25T22:15:25.691Z,96.98
2023-04-25T22:18:11.220Z,96.41
2023-04-25T22:20:56.589Z,95.37
2023-04-25T22:23:41.824Z,94.53
2023-04-25T22:26:27.195Z,94.59
2023-04-25T22:29:12.540Z,93.66
2023-04-25T22:31:58.763Z,93.47
2023-04-25T22:34:43.842Z,92.48
2023-04-25T22:37:29.746Z,92.33
2023-04-25T22:40:15.515Z,91.41
2023-04-25T22:43:00.850Z,91.05
2023-04-25T22:45:46.042Z,90.41
2023-04-25T22:48:31.356Z,90.13
2023-04-25T22:51:16.988Z,89.80
2023-04-25T22:54:01.940Z,89.56
2023-04-25T22:56:47.312Z,89.61
2023-04-25T22:59:32.743Z,89.47
2023-04-25T23:02:18.465Z,87.41
2023-04-25T23:05:06.890Z,88.07
2023-04-25T23:07:52.505Z,87.98
2023-04-25T23:10:37.713Z,87.68
2023-04-25T23:13:23.421Z,87.63
2023-04-25T23:16:09.869Z,87.85
2023-04-25T23:18:55.376Z,87.35
2023-04-25T23:21:40.368Z,87.73
2023-04-25T23:24:25.935Z,87.13
2023-04-25T23:27:11.292Z,87.78
2023-04-25T23:29:57.872Z,87.36
2023-04-25T23:32:43.141Z,87.69
2023-04-25T23:35:28.800Z,88.02
2023-04-25T23:38:14.152Z,88.27
2023-04-25T23:40:59.153Z,88.46
2023-04-25T23:43:44.544Z,88.24
2023-04-25T23:46:30.243Z,88.50
2023-04-25T23:49:15.868Z,88.70
2023-04-25T23:52:01.068Z,88.80
2023-04-25T23:54:46.286Z,88.55
2023-04-25T23:57:32.417Z,88.79
